createdAt,value
2022-11-15T00:01:16.912Z,0.15
2022-11-15T00:04:06.310Z,0.25
2022-11-15T00:06:55.149Z,0.33
2022-11-15T00:09:46.078Z,0.42
2022-11-15T00:12:34.022Z,0.49
2022-11-15T00:15:23.122Z,0.60
2022-11-15T00:18:19.108Z,0.69
2022-11-15T00:21:12.608Z,0.78
2022-11-15T00:24:01.698Z,0.88
2022-11-15T00:26:49.575Z,0.95
2022-11-15T00:29:40.759Z,1.04
2022-11-15T00:32:29.119Z,1.16
2022-11-15T00:35:18.047Z,1.26
2022-11-15T00:38:08.830Z,1.33
2022-11-15T00:40:58.029Z,1.42
2022-11-15T00:43:46.877Z,1.61
2022-11-15T00:46:34.833Z,1.74
2022-11-15T00:49:25.869Z,1.84
2022-11-15T00:52:15.596Z,1.97
2022-11-15T00:55:04.368Z,2.07
2022-11-15T00:57:52.317Z,2.17
2022-11-15T01:00:40.240Z,2.28
2022-11-15T01:03:31.456Z,2.40
2022-11-15T01:06:22.379Z,2.52
2022-11-15T01:09:10.192Z,2.62
2022-11-15T01:11:59.924Z,2.76
2022-11-15T01:14:47.571Z,2.86
2022-11-15T01:17:35.534Z,2.99
2022-11-15T01:20:23.669Z,3.10
2022-11-15T01:23:12.600Z,3.21
2022-11-15T01:26:05.076Z,3.32
2022-11-15T01:28:54.527Z,3.40
2022-11-15T01:31:44.346Z,3.53
2022-11-15T01:34:32.291Z,3.59
2022-11-15T01:37:20.616Z,3.75
2022-11-15T01:40:08.857Z,3.87
2022-11-15T01:42:56.809Z,3.95
2022-11-15T01:45:58.791Z,4.11
2022-11-15T01:48:47.241Z,4.20
2022-11-15T01:51:36.602Z,4.36
2022-11-15T01:54:26.325Z,4.44
2022-11-15T01:57:15.928Z,4.57
2022-11-15T02:00:06.689Z,4.70
2022-11-15T02:02:55.002Z,4.85
2022-11-15T02:05:43.978Z,4.96
2022-11-15T02:08:33.631Z,5.11
2022-11-15T02:11:22.103Z,5.22
2022-11-15T02:14:11.695Z,5.38
2022-11-15T02:17:10.638Z,5.51
2022-11-15T02:20:01.773Z,5.65
2022-11-15T02:23:40.131Z,5.81
2022-11-15T02:26:47.193Z,5.96
2022-11-15T02:29:50.238Z,6.08
2022-11-15T02:33:12.954Z,6.21
2022-11-15T02:36:06.529Z,6.34
2022-11-15T02:39:38.735Z,6.46
2022-11-15T02:42:53.448Z,6.59
2022-11-15T02:45:47.342Z,6.71
2022-11-15T02:48:36.787Z,6.82
2022-11-15T02:51:24.988Z,6.92
2022-11-15T02:54:25.137Z,7.03
2022-11-15T02:57:21.921Z,7.14
2022-11-15T03:00:13.151Z,7.26
2022-11-15T03:03:12.858Z,7.37
2022-11-15T03:06:29.349Z,7.48
2022-11-15T03:09:41.147Z,7.62
2022-11-15T03:12:38.434Z,7.74
2022-11-15T03:15:42.027Z,7.85
2022-11-15T03:18:44.887Z,7.94
2022-11-15T03:21:35.659Z,8.05
2022-11-15T03:24:27.560Z,8.15
2022-11-15T03:27:24.699Z,8.24
2022-11-15T03:30:13.900Z,8.36
2022-11-15T03:33:03.280Z,8.48
2022-11-15T03:35:52.984Z,8.65
2022-11-15T03:38:41.748Z,8.80
2022-11-15T03:41:56.638Z,8.94
2022-11-15T03:45:00.310Z,9.11
2022-11-15T03:47:56.421Z,9.22
2022-11-15T03:50:48.881Z,9.39
2022-11-15T03:53:37.293Z,9.48
2022-11-15T03:56:25.639Z,9.54
2022-11-15T03:59:14.078Z,9.68
2022-11-15T04:02:03.700Z,9.79
2022-11-15T04:04:52.337Z,9.91
2022-11-15T04:07:40.494Z,10.01
2022-11-15T04:10:28.990Z,10.09
2022-11-15T04:13:17.296Z,10.18
2022-11-15T04:16:06.639Z,10.25
2022-11-15T04:19:14.117Z,10.37
2022-11-15T04:22:21.060Z,10.47
2022-11-15T04:25:09.022Z,10.53
2022-11-15T04:27:58.032Z,10.65
2022-11-15T04:30:46.147Z,10.75
2022-11-15T04:33:34.484Z,10.84
2022-11-15T04:36:41.489Z,10.89
2022-11-15T04:39:29.138Z,10.92
2022-11-15T04:42:17.051Z,11.02
2022-11-15T04:45:05.140Z,11.11
2022-11-15T04:47:53.416Z,11.17
2022-11-15T04:50:42.272Z,11.26
2022-11-15T04:53:31.678Z,11.34
2022-11-15T04:56:20.072Z,11.40
2022-11-15T04:59:09.725Z,11.50
2022-11-15T05:01:57.887Z,11.56
2022-11-15T05:04:46.549Z,11.63
2022-11-15T05:07:35.606Z,11.66
2022-11-15T05:10:25.009Z,11.65
2022-11-15T05:13:13.204Z,11.66
2022-11-15T05:16:01.597Z,11.70
2022-11-15T05:18:50.445Z,11.77
2022-11-15T05:21:39.539Z,11.84
2022-11-15T05:24:27.844Z,11.93
2022-11-15T05:27:15.850Z,12.01
2022-11-15T05:30:03.612Z,12.16
2022-11-15T05:32:51.552Z,12.23
2022-11-15T05:35:50.839Z,12.27
2022-11-15T05:38:39.508Z,12.33
2022-11-15T05:41:38.284Z,12.40
2022-11-15T05:44:28.587Z,12.45
2022-11-15T05:47:22.109Z,12.48
2022-11-15T05:50:11.269Z,12.49
2022-11-15T05:53:04.958Z,12.51
2022-11-15T05:55:54.184Z,12.55
2022-11-15T05:58:41.825Z,12.58
2022-11-15T06:01:30.554Z,12.59
2022-11-15T06:04:22.230Z,12.59
2022-11-15T06:07:10.395Z,12.64
2022-11-15T06:09:58.879Z,12.68
2022-11-15T06:12:47.265Z,12.70
2022-11-15T06:15:38.171Z,12.74
2022-11-15T06:18:25.851Z,12.76
2022-11-15T06:21:13.864Z,12.78
2022-11-15T06:24:01.839Z,12.77
2022-11-15T06:26:50.001Z,12.82
2022-11-15T06:29:37.945Z,12.84
2022-11-15T06:32:26.242Z,12.80
2022-11-15T06:35:15.570Z,12.84
2022-11-15T06:38:13.693Z,12.92
2022-11-15T06:41:09.877Z,12.90
2022-11-15T06:43:57.684Z,12.94
2022-11-15T06:46:45.812Z,12.92
2022-11-15T06:49:33.788Z,12.93
2022-11-15T06:52:22.279Z,12.92
2022-11-15T06:55:11.067Z,12.91
2022-11-15T06:57:59.364Z,12.94
2022-11-15T07:00:47.449Z,12.92
2022-11-15T07:03:42.064Z,12.88
2022-11-15T07:06:30.249Z,12.82
2022-11-15T07:09:18.526Z,12.84
2022-11-15T07:12:08.007Z,12.82
2022-11-15T07:14:56.148Z,12.77
2022-11-15T07:17:45.247Z,12.76
2022-11-15T07:20:33.698Z,12.73
2022-11-15T07:23:23.127Z,12.70
2022-11-15T07:26:11.326Z,12.67
2022-11-15T07:28:59.294Z,12.64
2022-11-15T07:31:47.298Z,12.58
2022-11-15T07:34:36.598Z,12.55
2022-11-15T07:37:25.516Z,12.47
2022-11-15T07:40:13.784Z,12.48
2022-11-15T07:43:09.082Z,12.46
2022-11-15T07:45:59.440Z,12.40
2022-11-15T07:48:47.820Z,12.40
2022-11-15T07:51:35.934Z,12.34
2022-11-15T07:54:23.940Z,12.34
2022-11-15T07:57:12.321Z,12.31
2022-11-15T08:00:00.150Z,12.27
2022-11-15T08:02:48.712Z,12.27
2022-11-15T08:05:38.391Z,12.26
2022-11-15T08:08:26.570Z,12.19
2022-11-15T08:11:14.152Z,12.20
2022-11-15T08:14:02.113Z,12.18
2022-11-15T08:16:50.899Z,12.19
2022-11-15T08:19:39.113Z,12.15
2022-11-15T08:22:28.724Z,12.09
2022-11-15T08:25:16.627Z,12.05
2022-11-15T08:28:07.320Z,12.03
2022-11-15T08:30:56.681Z,11.99
2022-11-15T08:33:45.056Z,11.90
2022-11-15T08:36:40.686Z,11.87
2022-11-15T08:39:32.667Z,11.82
2022-11-15T08:42:20.370Z,11.78
2022-11-15T08:45:10.203Z,11.71
2022-11-15T08:47:58.779Z,11.69
2022-11-15T08:50:46.671Z,11.63
2022-11-15T08:53:35.334Z,11.51
2022-11-15T08:56:24.174Z,11.46
2022-11-15T08:59:12.364Z,11.39
2022-11-15T09:02:00.553Z,11.30
2022-11-15T09:04:48.560Z,11.22
2022-11-15T09:07:37.767Z,11.13
2022-11-15T09:10:27.044Z,11.02
2022-11-15T09:13:15.641Z,10.93
2022-11-15T09:16:04.768Z,10.88
2022-11-15T09:18:52.456Z,10.77
2022-11-15T09:21:41.522Z,10.69
2022-11-15T09:24:29.401Z,10.61
2022-11-15T09:27:19.138Z,10.52
2022-11-15T09:30:08.804Z,10.42
2022-11-15T09:32:57.473Z,10.31
2022-11-15T09:35:44.795Z,10.27
2022-11-15T09:38:34.241Z,10.16
2022-11-15T09:42:02.015Z,10.09
2022-11-15T09:44:49.949Z,9.98
2022-11-15T09:48:04.898Z,9.88
2022-11-15T09:51:05.884Z,9.77
2022-11-15T09:56:44.183Z,9.63
2022-11-15T09:59:20.263Z,9.58
2022-11-15T10:02:08.146Z,9.54
2022-11-15T10:04:40.500Z,9.50
2022-11-15T10:07:21.780Z,9.46
2022-11-15T10:10:04.280Z,9.43
2022-11-15T10:12:35.474Z,9.37
2022-11-15T10:15:17.450Z,9.32
2022-11-15T10:18:12.086Z,9.26
2022-11-15T10:20:52.163Z,9.18
2022-11-15T10:23:26.301Z,9.10
2022-11-15T10:26:07.043Z,9.03
2022-11-15T10:28:37.486Z,8.97
2022-11-15T10:31:28.895Z,8.90
2022-11-15T10:34:28.967Z,8.83
2022-11-15T10:37:06.648Z,8.76
2022-11-15T10:39:37.161Z,8.69
2022-11-15T10:42:43.434Z,8.62
2022-11-15T10:45:34.828Z,8.56
2022-11-15T10:48:17.284Z,8.53
2022-11-15T10:50:49.733Z,8.48
2022-11-15T10:53:46.795Z,8.44
2022-11-15T10:56:23.542Z,8.39
2022-11-15T10:59:00.148Z,8.32
2022-11-15T11:01:34.752Z,8.30
2022-11-15T11:04:08.675Z,8.25
2022-11-15T11:06:59.599Z,8.21
2022-11-15T11:09:45.593Z,8.14
2022-11-15T11:12:18.131Z,8.08
2022-11-15T11:14:49.347Z,8.03
2022-11-15T11:17:45.051Z,7.97
2022-11-15T11:20:33.544Z,7.88
2022-11-15T11:23:59.820Z,7.81
2022-11-15T11:26:39.544Z,7.70
2022-11-15T11:29:42.589Z,7.62
2022-11-15T11:32:59.335Z,7.56
2022-11-15T11:35:49.812Z,7.51
2022-11-15T11:38:27.798Z,7.49
2022-11-15T11:41:03.683Z,7.48
2022-11-15T11:43:39.879Z,7.45
2022-11-15T11:46:31.893Z,7.42
2022-11-15T11:49:28.097Z,7.39
2022-11-15T11:52:18.416Z,7.35
2022-11-15T11:55:16.145Z,7.30
2022-11-15T11:57:57.010Z,7.25
2022-11-15T12:00:35.851Z,7.19
2022-11-15T12:03:22.117Z,7.10
2022-11-15T12:06:25.874Z,6.96
2022-11-15T12:09:09.369Z,6.76
2022-11-15T12:12:03.996Z,6.57
2022-11-15T12:14:37.794Z,6.40
2022-11-15T12:17:09.402Z,6.24
2022-11-15T12:19:40.425Z,6.13
2022-11-15T12:22:50.127Z,6.03
2022-11-15T12:25:40.917Z,5.93
2022-11-15T12:28:58.398Z,5.81
2022-11-15T12:31:38.858Z,5.69
2022-11-15T12:34:33.827Z,5.56
2022-11-15T12:37:05.675Z,5.48
2022-11-15T12:39:54.452Z,5.42
2022-11-15T12:42:27.281Z,5.34
2022-11-15T12:44:57.743Z,5.28
2022-11-15T12:47:30.993Z,5.23
2022-11-15T12:50:01.508Z,5.17
2022-11-15T12:52:31.929Z,5.13
2022-11-15T12:55:04.600Z,5.08
2022-11-15T12:57:39.850Z,5.08
2022-11-15T13:00:18.665Z,5.15
2022-11-15T13:02:55.536Z,5.21
2022-11-15T13:05:32.178Z,5.26
2022-11-15T13:08:02.979Z,5.30
2022-11-15T13:10:37.801Z,5.36
2022-11-15T13:13:12.379Z,5.39
2022-11-15T13:16:05.265Z,5.43
2022-11-15T13:18:40.592Z,5.46
2022-11-15T13:21:45.898Z,5.49
2022-11-15T13:24:18.798Z,5.52
2022-11-15T13:26:49.766Z,5.51
2022-11-15T13:29:23.607Z,5.53
2022-11-15T13:31:58.627Z,5.50
2022-11-15T13:34:54.041Z,5.50
2022-11-15T13:37:25.953Z,5.48
2022-11-15T13:39:56.843Z,5.37
2022-11-15T13:42:33.955Z,5.28
2022-11-15T13:45:09.969Z,5.21
2022-11-15T13:47:40.859Z,5.15
2022-11-15T13:50:15.994Z,5.07
2022-11-15T13:52:51.425Z,5.02
2022-11-15T13:55:27.157Z,5.03
2022-11-15T13:58:01.620Z,5.06
2022-11-15T14:00:38.540Z,5.08
2022-11-15T14:03:28.739Z,5.12
2022-11-15T14:06:17.978Z,5.15
2022-11-15T14:09:08.160Z,5.24
2022-11-15T14:11:40.366Z,5.30
2022-11-15T14:14:11.482Z,5.36
2022-11-15T14:16:46.842Z,5.41
2022-11-15T14:19:38.818Z,5.46
2022-11-15T14:22:25.428Z,5.48
2022-11-15T14:25:11.213Z,5.50
2022-11-15T14:27:43.607Z,5.49
2022-11-15T14:30:21.441Z,5.50
2022-11-15T14:32:53.463Z,5.50
2022-11-15T14:35:27.060Z,5.45
2022-11-15T14:37:59.573Z,5.35
2022-11-15T14:40:30.691Z,5.25
2022-11-15T14:43:01.779Z,5.14
2022-11-15T14:45:33.561Z,5.05
2022-11-15T14:48:06.073Z,4.92
2022-11-15T14:50:40.060Z,4.84
2022-11-15T14:53:16.738Z,4.81
2022-11-15T14:55:49.648Z,4.79
2022-11-15T14:58:22.000Z,4.82
2022-11-15T15:00:52.890Z,4.85
2022-11-15T15:03:23.893Z,4.84
2022-11-15T15:05:56.164Z,4.87
2022-11-15T15:08:28.256Z,4.90
2022-11-15T15:10:58.921Z,4.89
2022-11-15T15:13:31.319Z,4.88
2022-11-15T15:16:04.381Z,4.85
2022-11-15T15:18:37.429Z,4.85
2022-11-15T15:21:24.929Z,4.87
2022-11-15T15:24:00.089Z,4.85
2022-11-15T15:26:32.458Z,4.85
2022-11-15T15:29:03.448Z,4.82
2022-11-15T15:31:35.638Z,4.84
2022-11-15T15:34:13.699Z,4.81
2022-11-15T15:36:47.948Z,4.72
2022-11-15T15:39:20.435Z,4.61
2022-11-15T15:41:54.872Z,4.53
2022-11-15T15:44:28.440Z,4.43
2022-11-15T15:47:01.587Z,4.34
2022-11-15T15:49:32.579Z,4.25
2022-11-15T15:52:04.827Z,4.21
2022-11-15T15:54:35.941Z,4.19
2022-11-15T15:57:08.498Z,4.16
2022-11-15T15:59:39.601Z,4.16
2022-11-15T16:02:15.245Z,4.16
2022-11-15T16:04:46.953Z,4.17
2022-11-15T16:07:30.467Z,4.16
2022-11-15T16:10:06.103Z,4.15
2022-11-15T16:12:40.381Z,4.14
2022-11-15T16:15:12.283Z,4.15
2022-11-15T16:17:48.657Z,4.14
2022-11-15T16:20:39.028Z,4.12
2022-11-15T16:23:12.372Z,4.05
2022-11-15T16:26:23.727Z,4.02
2022-11-15T16:28:56.659Z,3.95
2022-11-15T16:31:28.486Z,3.88
2022-11-15T16:33:59.781Z,3.85
2022-11-15T16:36:33.001Z,3.82
2022-11-15T16:39:07.552Z,3.72
2022-11-15T16:41:39.017Z,3.67
2022-11-15T16:44:09.381Z,3.57
2022-11-15T16:46:40.127Z,3.53
2022-11-15T16:49:16.825Z,3.44
2022-11-15T16:51:52.120Z,3.39
2022-11-15T16:54:23.786Z,3.36
2022-11-15T16:56:53.891Z,3.36
2022-11-15T16:59:25.634Z,3.35
2022-11-15T17:01:56.467Z,3.35
2022-11-15T17:04:30.136Z,3.35
2022-11-15T17:07:00.330Z,3.33
2022-11-15T17:09:31.452Z,3.35
2022-11-15T17:12:02.940Z,3.36
2022-11-15T17:14:32.883Z,3.41
2022-11-15T17:17:02.958Z,3.42
2022-11-15T17:19:34.287Z,3.42
2022-11-15T17:22:04.269Z,3.42
2022-11-15T17:24:34.344Z,3.42
2022-11-15T17:27:05.920Z,3.43
2022-11-15T17:29:36.120Z,3.43
2022-11-15T17:32:05.629Z,3.42
2022-11-15T17:34:35.652Z,3.39
2022-11-15T17:37:06.443Z,3.38
2022-11-15T17:39:36.372Z,3.33
2022-11-15T17:42:07.251Z,3.26
2022-11-15T17:44:38.005Z,3.14
2022-11-15T17:47:08.058Z,3.08
2022-11-15T17:49:41.835Z,2.99
2022-11-15T17:52:12.173Z,2.93
2022-11-15T17:54:42.158Z,2.84
2022-11-15T17:57:14.056Z,2.84
2022-11-15T17:59:44.242Z,2.83
2022-11-15T18:02:14.568Z,2.87
2022-11-15T18:04:44.456Z,2.88
2022-11-15T18:07:15.209Z,2.89
2022-11-15T18:09:48.380Z,2.88
2022-11-15T18:12:18.810Z,2.81
2022-11-15T18:14:48.702Z,2.79
2022-11-15T18:17:20.291Z,2.75
2022-11-15T18:19:50.544Z,2.76
2022-11-15T18:22:22.959Z,2.71
2022-11-15T18:24:53.134Z,2.70
2022-11-15T18:27:23.381Z,2.65
2022-11-15T18:29:53.314Z,2.64
2022-11-15T18:32:23.543Z,2.61
2022-11-15T18:34:53.512Z,2.63
2022-11-15T18:37:23.473Z,2.63
2022-11-15T18:39:54.213Z,2.55
2022-11-15T18:42:25.331Z,2.52
2022-11-15T18:44:55.687Z,2.45
2022-11-15T18:47:26.736Z,2.34
2022-11-15T18:50:02.071Z,2.30
2022-11-15T18:52:32.182Z,2.24
2022-11-15T18:55:02.057Z,2.18
2022-11-15T18:57:32.535Z,2.13
2022-11-15T19:00:02.569Z,2.12
2022-11-15T19:02:32.591Z,2.08
2022-11-15T19:05:02.547Z,2.10
2022-11-15T19:07:32.655Z,2.07
2022-11-15T19:10:02.563Z,2.10
2022-11-15T19:12:33.539Z,2.10
2022-11-15T19:15:08.895Z,2.10
2022-11-15T19:17:40.279Z,2.08
2022-11-15T19:20:10.652Z,2.06
2022-11-15T19:22:40.002Z,2.10
2022-11-15T19:25:11.288Z,2.11
2022-11-15T19:27:42.010Z,2.13
2022-11-15T19:30:12.612Z,2.16
2022-11-15T19:32:42.702Z,2.13
2022-11-15T19:35:12.651Z,2.14
2022-11-15T19:37:43.371Z,2.11
2022-11-15T19:40:15.582Z,2.11
2022-11-15T19:42:46.922Z,2.09
2022-11-15T19:45:18.822Z,2.04
2022-11-15T19:47:48.971Z,1.99
2022-11-15T19:50:20.691Z,1.97
2022-11-15T19:52:50.849Z,1.92
2022-11-15T19:55:21.931Z,1.91
2022-11-15T19:57:52.163Z,1.85
2022-11-15T20:00:23.190Z,1.84
2022-11-15T20:02:54.601Z,1.86
2022-11-15T20:05:25.746Z,1.86
2022-11-15T20:07:56.816Z,1.87
2022-11-15T20:10:27.620Z,1.92
2022-11-15T20:12:57.864Z,1.93
2022-11-15T20:15:28.386Z,1.93
2022-11-15T20:17:59.191Z,1.94
2022-11-15T20:20:29.775Z,1.90
2022-11-15T20:23:02.426Z,1.86
2022-11-15T20:25:33.943Z,1.84
2022-11-15T20:28:05.316Z,1.81
2022-11-15T20:30:36.645Z,1.77
2022-11-15T20:33:07.144Z,1.72
2022-11-15T20:35:37.654Z,1.68
2022-11-15T20:38:12.833Z,1.68
2022-11-15T20:40:43.165Z,1.71
2022-11-15T20:43:15.875Z,1.72
2022-11-15T20:45:47.898Z,1.66
2022-11-15T20:48:19.499Z,1.61
2022-11-15T20:50:50.166Z,1.52
2022-11-15T20:53:22.858Z,1.47
2022-11-15T20:55:53.748Z,1.42
2022-11-15T20:58:24.570Z,1.36
2022-11-15T21:00:58.830Z,1.30
2022-11-15T21:03:29.507Z,1.27
2022-11-15T21:05:59.643Z,1.27
2022-11-15T21:08:31.589Z,1.24
2022-11-15T21:11:21.130Z,1.28
2022-11-15T21:13:51.727Z,1.29
2022-11-15T21:16:21.658Z,1.28
2022-11-15T21:18:54.143Z,1.30
2022-11-15T21:21:25.429Z,1.36
2022-11-15T21:23:55.630Z,1.36
2022-11-15T21:26:26.328Z,1.38
2022-11-15T21:28:58.925Z,1.42
2022-11-15T21:31:31.089Z,1.45
2022-11-15T21:34:05.841Z,1.49
2022-11-15T21:36:36.198Z,1.49
2022-11-15T21:39:07.770Z,1.54
2022-11-15T21:41:38.236Z,1.54
2022-11-15T21:44:11.746Z,1.52
2022-11-15T21:46:42.398Z,1.50
2022-11-15T21:49:13.653Z,1.44
2022-11-15T21:51:44.053Z,1.36
2022-11-15T21:54:15.525Z,1.30
2022-11-15T21:56:47.866Z,1.26
2022-11-15T21:59:18.997Z,1.23
2022-11-15T22:02:09.198Z,1.18
2022-11-15T22:04:40.506Z,1.16
2022-11-15T22:07:12.190Z,1.18
2022-11-15T22:09:43.541Z,1.21
2022-11-15T22:12:14.975Z,1.24
2022-11-15T22:14:46.121Z,1.23
2022-11-15T22:17:16.286Z,1.23
2022-11-15T22:19:52.664Z,1.21
2022-11-15T22:22:23.311Z,1.21
2022-11-15T22:24:53.203Z,1.19
2022-11-15T22:27:24.372Z,1.19
2022-11-15T22:29:55.324Z,1.17
2022-11-15T22:32:25.238Z,1.17
2022-11-15T22:34:56.381Z,1.19
2022-11-15T22:37:29.294Z,1.21
2022-11-15T22:40:00.926Z,1.23
2022-11-15T22:42:32.063Z,1.29
2022-11-15T22:45:04.514Z,1.33
2022-11-15T22:47:35.676Z,1.31
2022-11-15T22:50:08.645Z,1.30
2022-11-15T22:52:40.430Z,1.23
2022-11-15T22:55:13.032Z,1.19
2022-11-15T22:57:52.053Z,1.10
2022-11-15T23:00:24.396Z,1.05
2022-11-15T23:02:54.496Z,1.00
2022-11-15T23:05:25.332Z,0.93
2022-11-15T23:07:59.682Z,0.87
2022-11-15T23:10:49.753Z,0.81
2022-11-15T23:13:20.652Z,0.83
2022-11-15T23:16:11.395Z,0.80
2022-11-15T23:19:13.675Z,0.81
2022-11-15T23:22:06.101Z,0.81
2022-11-15T23:24:37.541Z,0.83
2022-11-15T23:27:09.249Z,0.85
2022-11-15T23:29:59.228Z,0.88
2022-11-15T23:32:47.717Z,0.92
2022-11-15T23:35:18.394Z,0.92
2022-11-15T23:37:48.695Z,0.92
2022-11-15T23:40:18.879Z,0.96
2022-11-15T23:42:50.161Z,0.98
2022-11-15T23:45:20.547Z,1.01
2022-11-15T23:47:50.541Z,1.08
2022-11-15T23:50:21.766Z,1.12
2022-11-15T23:52:53.768Z,1.23
2022-11-15T23:55:25.154Z,1.32
2022-11-15T23:57:55.805Z,1.46
